Terminal Aerodrome Forecast
Issued by NWS

Home | Current Version | Previous Version | Text Only | Print | Product List | Glossary On
Versions: 1 2 3 4 5 6 7 8 9 10 11 12 13 14 15 16 17
000
FTAK31 PAJN 221700
TAFAKT
TAF
PAKT 221735Z 2218/2318 14008KT 6SM -SHRA BR SCT010 BKN015 OVC025
     FM230000 15006KT P6SM -SHRA BKN007 OVC015
     FM231200 16004KT P6SM -SHRA SCT015 OVC025
      AMD LTD TO CLD VIS AND WIND 2306/2315=

USA.gov is the U.S. government's official web portal to all federal, state and local government web resources and services.